Time;durP1;ratioP1;P1;durP2;ratioP2;P2;SDS_P1;SDS_P2;PMS_P1;PMS_P2;Temp;Humidity;BMP_temperature;BMP_pressure;BME280_temperature;BME280_humidity;BME280_pressure;Samples;Min_cycle;Max_cycle;Signal;HPM_P1;HPM_P2
2022/03/01 00:00:17;;;;;;;31.70;13.77;;;;;;;-0.66;77.54;101820.84;5092652;28;20101;-76
2022/03/01 00:03:06;;;;;;;31.92;13.40;;;;;;;-0.84;78.15;101820.44;5073859;28;20134;-76
2022/03/01 00:05:34;;;;;;;31.52;14.02;;;;;;;-0.81;78.24;101823.16;5075933;28;20048;-76
2022/03/01 00:08:01;;;;;;;35.63;13.63;;;;;;;-0.81;77.85;101817.84;5075791;28;20078;-76
2022/03/01 00:10:28;;;;;;;32.17;13.13;;;;;;;-0.86;78.39;101820.41;5075930;28;20502;-76
2022/03/01 00:12:56;;;;;;;25.35;11.63;;;;;;;-0.82;77.84;101816.94;5075787;28;20397;-76
2022/03/01 00:15:24;;;;;;;29.05;12.35;;;;;;;-0.95;78.04;101809.59;5075857;28;20049;-76
2022/03/01 00:17:51;;;;;;;27.45;12.35;;;;;;;-0.97;78.30;101816.63;5075422;28;20075;-75
2022/03/01 00:20:20;;;;;;;28.77;12.43;;;;;;;-0.98;78.63;101815.72;5075723;28;20082;-76
2022/03/01 00:22:47;;;;;;;29.70;12.30;;;;;;;-0.90;78.27;101813.22;5075264;28;20047;-75
2022/03/01 00:25:15;;;;;;;29.73;12.07;;;;;;;-0.98;78.35;101818.38;5075637;28;20411;-76
2022/03/01 00:27:43;;;;;;;27.42;11.95;;;;;;;-0.95;78.18;101813.16;5075607;28;20121;-76
2022/03/01 00:30:11;;;;;;;29.60;12.70;;;;;;;-1.05;77.50;101803.16;5075897;28;20041;-78
2022/03/01 00:32:39;;;;;;;28.90;11.85;;;;;;;-1.02;77.72;101805.88;5075786;28;20490;-78
2022/03/01 00:35:07;;;;;;;27.90;12.32;;;;;;;-0.93;77.57;101805.19;5075615;28;20052;-78
2022/03/01 00:37:36;;;;;;;27.40;11.63;;;;;;;-1.02;78.01;101803.22;5075219;28;20044;-76
2022/03/01 00:40:05;;;;;;;28.10;12.38;;;;;;;-0.88;77.01;101799.16;5075503;28;20131;-76
2022/03/01 00:42:32;;;;;;;26.92;12.63;;;;;;;-0.95;77.05;101799.88;5075381;28;20056;-79
2022/03/01 00:45:00;;;;;;;32.30;12.73;;;;;;;-0.93;77.25;101795.50;5075295;28;20048;-77
2022/03/01 00:47:28;;;;;;;30.10;11.48;;;;;;;-0.90;76.38;101797.31;5075322;28;20047;-79
2022/03/01 00:49:57;;;;;;;27.13;12.43;;;;;;;-0.96;76.41;101798.09;5093701;28;20044;-76
2022/03/01 00:52:25;;;;;;;28.95;12.43;;;;;;;-0.95;76.71;101799.88;5095114;28;20055;-80
2022/03/01 00:54:54;;;;;;;30.52;12.60;;;;;;;-0.98;76.24;101799.81;5095266;28;20055;-77
2022/03/01 00:57:22;;;;;;;26.77;11.70;;;;;;;-0.99;76.52;101798.03;5096414;28;20073;-80
2022/03/01 00:59:49;;;;;;;26.55;12.45;;;;;;;-1.13;77.06;101799.44;5095339;28;20052;-78
2022/03/01 01:02:16;;;;;;;27.63;12.48;;;;;;;-1.14;77.28;101800.31;5095146;28;20051;-76
2022/03/01 01:04:44;;;;;;;29.88;12.75;;;;;;;-1.20;77.13;101788.69;5095167;28;20048;-79
2022/03/01 01:07:12;;;;;;;28.60;13.55;;;;;;;-1.08;76.97;101788.09;5095005;28;20044;-79
2022/03/01 01:09:39;;;;;;;33.70;13.60;;;;;;;-1.12;76.77;101786.22;5095355;28;20044;-78
2022/03/01 01:12:10;;;;;;;32.35;13.38;;;;;;;-1.14;76.81;101787.97;5095208;28;20059;-79
2022/03/01 01:14:38;;;;;;;36.38;15.13;;;;;;;-1.06;76.75;101782.81;5096094;28;20044;-78
2022/03/01 01:17:05;;;;;;;33.50;15.25;;;;;;;-1.17;76.86;101790.53;5095155;28;20047;-78
2022/03/01 01:19:33;;;;;;;34.65;15.68;;;;;;;-1.20;77.32;101790.47;5094673;28;20126;-78
2022/03/01 01:24:46;;;;;;;35.83;16.33;;;;;;;-1.17;77.42;101788.75;5095399;28;20051;-78
2022/03/01 01:27:15;;;;;;;34.35;15.35;;;;;;;-1.18;77.08;101788.75;5094944;28;20051;-76
2022/03/01 01:29:42;;;;;;;42.22;18.27;;;;;;;-1.26;77.01;101790.28;5094663;28;20051;-76
2022/03/01 01:32:10;;;;;;;42.15;17.95;;;;;;;-1.19;77.19;101784.31;5094644;28;20097;-75
2022/03/01 01:34:37;;;;;;;42.92;18.15;;;;;;;-1.17;77.04;101788.75;5094128;28;20044;-81
2022/03/01 01:37:05;;;;;;;41.88;18.63;;;;;;;-1.19;76.52;101787.84;5094485;28;20393;-78
2022/03/01 01:39:33;;;;;;;41.08;18.90;;;;;;;-1.21;77.01;101781.59;5094513;28;20048;-79
2022/03/01 01:42:03;;;;;;;39.53;18.80;;;;;;;-1.28;77.36;101784.97;5094586;28;20040;-76
2022/03/01 01:44:32;;;;;;;45.83;19.40;;;;;;;-1.32;77.85;101780.47;5094671;28;20173;-79
2022/03/01 01:47:00;;;;;;;39.80;18.45;;;;;;;-1.35;77.55;101783.91;5094320;28;20489;-79
2022/03/01 01:49:28;;;;;;;39.78;18.17;;;;;;;-1.37;78.03;101788.28;5093644;28;20055;-76
2022/03/01 01:51:55;;;;;;;43.85;18.65;;;;;;;-1.34;78.38;101779.53;5074185;28;20045;-75
2022/03/01 01:54:23;;;;;;;40.78;19.20;;;;;;;-1.38;78.93;101782.97;5073968;28;20087;-79
2022/03/01 01:56:50;;;;;;;35.88;17.05;;;;;;;-1.51;78.71;101772.03;5073722;28;20417;-77
2022/03/01 01:59:18;;;;;;;37.80;17.63;;;;;;;-1.40;78.84;101776.75;5090351;28;20047;-78
2022/03/01 02:01:47;;;;;;;36.67;17.08;;;;;;;-1.38;78.10;101772.38;5094301;28;20105;-75
2022/03/01 02:04:14;;;;;;;39.00;17.73;;;;;;;-1.47;78.36;101771.25;5093666;28;20044;-79
2022/03/01 02:06:51;;;;;;;36.70;16.75;;;;;;;-1.50;78.84;101767.66;5094127;28;20476;-77
2022/03/01 02:09:18;;;;;;;36.45;16.45;;;;;;;-1.46;78.75;101770.41;5095164;28;20090;-75
2022/03/01 02:11:46;;;;;;;35.90;16.05;;;;;;;-1.39;78.37;101767.94;5093951;28;20048;-78
2022/03/01 02:14:13;;;;;;;31.90;15.15;;;;;;;-1.39;78.09;101768.81;5093930;28;20068;-79
2022/03/01 02:16:41;;;;;;;36.88;17.30;;;;;;;-1.61;78.65;101765.66;5093837;28;20048;-76
2022/03/01 02:19:13;;;;;;;32.22;15.77;;;;;;;-1.59;78.74;101763.03;5093678;28;20040;-76
2022/03/01 02:21:47;;;;;;;32.90;15.80;;;;;;;-1.64;78.77;101760.25;5096065;28;20048;-77
2022/03/01 02:24:16;;;;;;;30.95;13.32;;;;;;;-1.59;78.44;101763.03;5093810;28;20100;-76
2022/03/01 02:26:43;;;;;;;30.08;12.95;;;;;;;-1.60;78.15;101758.56;5093303;28;20552;-75
2022/03/01 02:29:11;;;;;;;26.13;13.38;;;;;;;-1.49;78.44;101759.72;5093968;28;20051;-79
2022/03/01 02:31:39;;;;;;;33.05;16.50;;;;;;;-1.54;78.63;101756.06;5093878;28;20040;-79
2022/03/01 02:34:06;;;;;;;32.58;14.85;;;;;;;-1.62;79.08;101747.03;5093319;28;20048;-77
2022/03/01 02:36:34;;;;;;;27.48;13.35;;;;;;;-1.72;79.05;101755.63;5093622;28;20089;-76
2022/03/01 02:39:04;;;;;;;26.65;12.73;;;;;;;-1.68;79.01;101752.19;5093583;28;20119;-76
2022/03/01 02:41:32;;;;;;;28.40;13.65;;;;;;;-1.46;78.65;101749.19;5093525;28;20075;-79
2022/03/01 02:44:02;;;;;;;26.50;13.25;;;;;;;-1.59;79.15;101747.13;5093537;28;20051;-77
2022/03/01 02:46:30;;;;;;;25.73;13.07;;;;;;;-1.58;78.45;101753.34;5095121;28;20036;-76
2022/03/01 02:48:57;;;;;;;26.10;12.02;;;;;;;-1.61;78.71;101751.50;5092689;28;20050;-76
2022/03/01 02:51:25;;;;;;;24.92;12.45;;;;;;;-1.56;78.82;101746.31;5093287;28;20504;-77
2022/03/01 02:53:52;;;;;;;34.83;16.05;;;;;;;-1.55;78.28;101753.41;5093449;28;20554;-77
2022/03/01 02:56:22;;;;;;;38.95;19.90;;;;;;;-1.61;78.08;101748.84;5093166;28;20063;-77
2022/03/01 02:58:49;;;;;;;44.65;21.88;;;;;;;-1.63;78.09;101745.25;5093213;28;20044;-76
2022/03/01 03:01:17;;;;;;;42.08;18.83;;;;;;;-1.59;78.19;101741.81;5093221;28;20054;-78
2022/03/01 03:03:45;;;;;;;60.22;27.77;;;;;;;-1.59;78.13;101748.88;5092917;28;20044;-75
2022/03/01 03:06:12;;;;;;;33.55;16.73;;;;;;;-1.67;78.55;101744.28;5093389;28;20427;-76
2022/03/01 03:08:40;;;;;;;27.27;13.45;;;;;;;-1.68;78.82;101744.25;5093305;28;20040;-75
2022/03/01 03:11:08;;;;;;;26.88;12.02;;;;;;;-1.72;78.58;101739.75;5093296;28;20097;-76
2022/03/01 03:13:37;;;;;;;33.35;14.23;;;;;;;-1.82;78.72;101741.25;5093095;28;20094;-80
2022/03/01 03:16:07;;;;;;;20.65;10.05;;;;;;;-1.85;78.74;101738.53;5092817;28;20051;-76
2022/03/01 03:18:35;;;;;;;26.85;11.95;;;;;;;-1.80;78.98;101736.88;5093146;28;20059;-76
2022/03/01 03:21:02;;;;;;;23.40;11.55;;;;;;;-1.85;78.60;101747.34;5093159;28;20101;-78
2022/03/01 03:23:30;;;;;;;22.65;11.18;;;;;;;-1.89;78.84;101740.19;5093196;28;20048;-77
2022/03/01 03:25:57;;;;;;;25.25;11.40;;;;;;;-1.81;78.69;101737.75;5093061;28;20040;-76
2022/03/01 03:28:25;;;;;;;22.60;10.68;;;;;;;-1.78;78.51;101741.38;5093188;28;20113;-76
2022/03/01 03:30:54;;;;;;;21.88;10.38;;;;;;;-1.99;78.54;101740.81;5092736;28;20051;-75
2022/03/01 03:33:22;;;;;;;26.48;11.57;;;;;;;-1.94;78.73;101749.78;5093029;28;20052;-76
2022/03/01 03:35:50;;;;;;;22.70;10.77;;;;;;;-2.01;78.30;101742.53;5093111;28;20043;-76
2022/03/01 03:38:17;;;;;;;30.08;10.15;;;;;;;-2.02;78.53;101746.97;5094705;28;20122;-76
2022/03/01 03:40:45;;;;;;;26.42;12.00;;;;;;;-2.12;78.55;101750.19;5096867;28;20040;-75
2022/03/01 03:43:13;;;;;;;23.55;11.88;;;;;;;-2.08;78.51;101734.44;5096878;28;20040;-76
2022/03/01 03:45:40;;;;;;;25.13;11.20;;;;;;;-2.10;78.87;101728.22;5096606;28;20485;-76
2022/03/01 03:48:09;;;;;;;25.58;10.55;;;;;;;-2.06;78.41;101731.81;5096383;28;20036;-78
2022/03/01 03:50:37;;;;;;;29.98;12.15;;;;;;;-2.17;79.06;101726.25;5096594;28;20157;-75
2022/03/01 03:53:04;;;;;;;24.40;11.70;;;;;;;-2.07;78.54;101728.28;5096590;28;20047;-76
2022/03/01 03:55:32;;;;;;;27.17;11.40;;;;;;;-2.12;78.31;101721.06;5096529;28;20056;-76
2022/03/01 03:57:59;;;;;;;26.00;12.13;;;;;;;-2.26;78.51;101721.59;5096623;28;20374;-76
2022/03/01 04:00:27;;;;;;;27.85;11.88;;;;;;;-2.23;78.27;101720.81;5096030;28;20121;-75
2022/03/01 04:02:55;;;;;;;27.75;10.98;;;;;;;-2.24;78.30;101717.25;5096189;28;20061;-76
2022/03/01 04:05:24;;;;;;;26.15;11.73;;;;;;;-2.23;77.92;101720.81;5096421;28;20493;-76
2022/03/01 04:07:52;;;;;;;30.05;12.48;;;;;;;-2.28;78.31;101719.75;5096412;28;20044;-75
2022/03/01 04:10:19;;;;;;;35.45;12.80;;;;;;;-2.37;78.47;101717.78;5096210;28;20052;-76
2022/03/01 04:12:47;;;;;;;45.55;17.00;;;;;;;-2.32;78.41;101716.16;5096120;28;20040;-76
2022/03/01 04:15:15;;;;;;;62.25;20.15;;;;;;;-2.41;78.37;101710.63;5095856;28;20056;-76
2022/03/01 04:17:42;;;;;;;52.65;17.10;;;;;;;-2.37;78.22;101707.19;5096207;28;20055;-78
2022/03/01 04:20:11;;;;;;;61.53;18.88;;;;;;;-2.43;78.69;101707.91;5096084;28;20051;-79
2022/03/01 04:22:40;;;;;;;60.45;19.88;;;;;;;-2.38;78.66;101701.00;5095974;28;20048;-77
2022/03/01 04:25:10;;;;;;;72.40;21.27;;;;;;;-2.47;78.02;101700.75;5095953;28;20044;-78
2022/03/01 04:27:38;;;;;;;52.25;17.70;;;;;;;-2.43;77.83;101704.38;5095919;28;20097;-78
2022/03/01 04:30:07;;;;;;;50.63;14.55;;;;;;;-2.48;78.55;101699.84;5095557;28;20058;-80
2022/03/01 04:32:35;;;;;;;35.13;12.73;;;;;;;-2.45;78.00;101703.44;5095944;28;20052;-79
2022/03/01 04:35:03;;;;;;;33.45;12.52;;;;;;;-2.54;78.32;101706.75;5095758;28;20117;-79
2022/03/01 04:37:31;;;;;;;34.63;13.38;;;;;;;-2.54;78.95;101704.97;5095771;28;20054;-80
2022/03/01 04:39:59;;;;;;;35.40;13.30;;;;;;;-2.57;78.40;101702.25;5095773;28;20409;-80
2022/03/01 04:42:27;;;;;;;33.28;12.75;;;;;;;-2.56;78.55;101706.69;5095584;28;20074;-80
2022/03/01 04:44:55;;;;;;;29.85;11.75;;;;;;;-2.62;79.13;101710.06;5095237;28;20575;-79
2022/03/01 04:47:22;;;;;;;29.85;11.27;;;;;;;-2.62;78.90;101703.88;5095306;28;20039;-75
2022/03/01 04:49:49;;;;;;;32.67;12.65;;;;;;;-2.57;79.74;101704.88;5094768;28;20051;-80
2022/03/01 04:52:17;;;;;;;47.58;17.27;;;;;;;-2.47;79.40;101706.94;5095486;28;20485;-80
2022/03/01 04:54:45;;;;;;;34.28;13.68;;;;;;;-2.52;80.10;101708.56;5095324;28;20104;-77
2022/03/01 04:57:14;;;;;;;34.25;13.73;;;;;;;-2.42;79.03;101709.72;5095142;28;20052;-75
2022/03/01 04:59:42;;;;;;;32.38;14.18;;;;;;;-2.40;78.51;101700.06;5094817;28;20048;-79
2022/03/01 05:02:09;;;;;;;22.08;9.55;;;;;;;-2.38;79.60;101700.13;5095142;28;20054;-79
2022/03/01 05:04:37;;;;;;;20.42;9.63;;;;;;;-2.45;79.91;101703.44;5095073;28;20040;-79
2022/03/01 05:07:04;;;;;;;20.65;10.02;;;;;;;-2.51;79.56;101706.81;5095224;28;20048;-76
2022/03/01 05:09:33;;;;;;;24.45;9.65;;;;;;;-2.51;80.11;101712.13;5095097;28;20500;-77
2022/03/01 05:12:01;;;;;;;26.90;10.77;;;;;;;-2.58;80.15;101704.88;5094794;28;20446;-78
2022/03/01 05:14:30;;;;;;;31.38;12.55;;;;;;;-2.42;79.87;101704.41;5094634;28;20044;-80
2022/03/01 05:16:57;;;;;;;34.33;13.25;;;;;;;-2.30;79.46;101702.94;5094999;28;20044;-77
2022/03/01 05:19:25;;;;;;;31.17;13.48;;;;;;;-2.18;79.17;101705.94;5094894;28;20413;-78
2022/03/01 05:21:52;;;;;;;29.98;14.25;;;;;;;-2.27;79.29;101706.59;5093589;28;20443;-79
2022/03/01 05:24:20;;;;;;;25.90;12.85;;;;;;;-2.34;79.94;101705.50;5091350;28;20044;-78
2022/03/01 05:26:47;;;;;;;22.30;10.52;;;;;;;-2.30;79.80;101702.94;5090615;28;20505;-79
2022/03/01 05:29:15;;;;;;;23.63;11.13;;;;;;;-2.22;79.21;101701.41;5091354;28;20448;-75
2022/03/01 05:31:44;;;;;;;32.22;13.70;;;;;;;-2.34;80.41;101699.34;5091229;28;20059;-76
2022/03/01 05:34:11;;;;;;;26.40;11.00;;;;;;;-2.24;79.83;101693.41;5091034;28;20382;-78
2022/03/01 05:36:39;;;;;;;18.92;9.18;;;;;;;-2.19;80.15;101696.19;5091186;28;20073;-79
2022/03/01 05:39:06;;;;;;;25.67;12.20;;;;;;;-2.08;80.02;101692.06;5090780;28;20044;-77
2022/03/01 05:41:34;;;;;;;26.90;13.50;;;;;;;-2.18;80.23;101690.03;5090679;28;20048;-76
2022/03/01 05:44:02;;;;;;;22.77;10.32;;;;;;;-2.07;80.36;101691.22;5091121;28;20493;-81
2022/03/01 05:46:29;;;;;;;22.67;10.40;;;;;;;-2.02;80.15;101685.13;5091119;28;20047;-80
2022/03/01 05:48:58;;;;;;;27.80;10.05;;;;;;;-1.95;79.69;101689.72;5090577;28;20154;-76
2022/03/01 05:51:26;;;;;;;30.15;13.52;;;;;;;-1.95;79.66;101690.63;5090525;28;20052;-77
2022/03/01 05:53:54;;;;;;;23.45;10.05;;;;;;;-1.90;79.50;101693.38;5090873;28;20068;-80
2022/03/01 05:56:21;;;;;;;20.50;8.85;;;;;;;-1.93;79.43;101686.25;5090270;28;20067;-79
2022/03/01 05:58:49;;;;;;;19.65;9.07;;;;;;;-1.95;79.54;101687.06;5097480;28;20055;-75
2022/03/01 06:01:16;;;;;;;29.75;9.38;;;;;;;-1.87;79.46;101687.25;5110211;28;20040;-79
2022/03/01 06:03:44;;;;;;;22.77;9.50;;;;;;;-1.96;80.22;101687.91;5110597;28;20444;-80
2022/03/01 06:06:13;;;;;;;19.33;8.75;;;;;;;-1.95;79.62;101687.06;5110889;28;20043;-76
2022/03/01 06:08:40;;;;;;;22.80;10.57;;;;;;;-1.87;80.01;101690.78;5095353;28;20574;-76
2022/03/01 06:11:08;;;;;;;23.15;10.45;;;;;;;-1.72;79.20;101686.75;5090142;28;20048;-78
2022/03/01 06:13:37;;;;;;;19.05;9.10;;;;;;;-1.70;79.43;101685.03;5090380;28;20056;-77
2022/03/01 06:16:06;;;;;;;23.02;9.82;;;;;;;-1.69;79.40;101689.47;5092676;28;20048;-75
2022/03/01 06:18:33;;;;;;;27.25;9.20;;;;;;;-1.65;79.41;101686.91;5094022;28;20048;-76
2022/03/01 06:21:02;;;;;;;20.38;9.50;;;;;;;-1.58;79.27;101685.28;5093738;28;20504;-80
2022/03/01 06:23:32;;;;;;;20.50;9.40;;;;;;;-1.63;79.29;101694.91;5093448;28;20097;-77
2022/03/01 06:25:59;;;;;;;18.40;8.77;;;;;;;-1.51;79.28;101694.31;5093302;28;20043;-78
2022/03/01 06:28:27;;;;;;;21.40;9.27;;;;;;;-1.50;78.94;101691.66;5093653;28;20044;-76
2022/03/01 06:30:55;;;;;;;38.42;11.40;;;;;;;-1.43;79.30;101694.44;5093617;28;20055;-81
2022/03/01 06:33:23;;;;;;;22.05;10.13;;;;;;;-1.40;78.98;101691.91;5093747;28;20139;-80
2022/03/01 06:35:51;;;;;;;23.27;10.48;;;;;;;-1.41;78.99;101698.06;5093316;28;20044;-76
2022/03/01 06:38:18;;;;;;;29.52;11.75;;;;;;;-1.45;79.86;101689.13;5093618;28;20071;-76
2022/03/01 06:40:48;;;;;;;25.70;10.73;;;;;;;-1.37;79.63;101689.31;5093140;28;20048;-76
2022/03/01 06:43:15;;;;;;;25.08;11.73;;;;;;;-1.29;79.32;101685.06;5093505;28;20048;-77
2022/03/01 06:45:43;;;;;;;29.02;11.38;;;;;;;-1.24;79.22;101679.84;5093548;28;20048;-76
2022/03/01 06:48:10;;;;;;;30.85;12.95;;;;;;;-1.12;79.32;101687.19;5093212;28;20040;-76
2022/03/01 06:50:38;;;;;;;24.38;12.32;;;;;;;-1.09;79.00;101681.94;5093334;28;20036;-75
2022/03/01 06:53:06;;;;;;;30.35;12.90;;;;;;;-1.03;78.64;101676.75;5093289;28;20040;-81
2022/03/01 06:55:33;;;;;;;72.88;15.15;;;;;;;-0.96;79.11;101678.69;5098027;28;20131;-76
2022/03/01 06:58:02;;;;;;;27.83;12.35;;;;;;;-0.92;78.67;101679.63;5104851;28;20109;-76
2022/03/01 07:00:30;;;;;;;28.40;13.93;;;;;;;-0.93;78.33;101680.50;5093264;28;20044;-76
2022/03/01 07:02:57;;;;;;;34.13;14.70;;;;;;;-0.94;79.07;101674.31;5093212;28;20040;-80
2022/03/01 07:05:25;;;;;;;32.50;13.93;;;;;;;-0.81;78.49;101671.91;5093244;28;20051;-76
2022/03/01 07:07:53;;;;;;;26.50;14.50;;;;;;;-0.80;78.54;101661.34;5093414;28;20043;-77
2022/03/01 07:10:20;;;;;;;30.95;13.48;;;;;;;-0.61;77.65;101669.63;5095712;28;20048;-76
2022/03/01 07:12:49;;;;;;;26.65;14.05;;;;;;;-0.60;77.70;101663.47;5101247;28;20039;-75
2022/03/01 07:15:18;;;;;;;27.90;13.02;;;;;;;-0.55;77.69;101666.22;5107251;28;20484;-77
2022/03/01 07:17:46;;;;;;;24.48;12.82;;;;;;;-0.49;77.79;101666.31;5105873;28;20035;-77
2022/03/01 07:20:14;;;;;;;23.70;12.32;;;;;;;-0.38;77.51;101669.19;5107188;28;20044;-76
2022/03/01 07:22:42;;;;;;;24.65;11.93;;;;;;;-0.32;76.90;101672.81;5107041;28;20481;-81
2022/03/01 07:25:11;;;;;;;42.65;12.57;;;;;;;-0.31;76.43;101664.00;5103092;28;20048;-76
2022/03/01 07:27:46;;;;;;;25.77;12.23;;;;;;;-0.19;76.64;101673.94;5097048;28;20121;-77
2022/03/01 07:30:13;;;;;;;23.42;12.30;;;;;;;0.01;76.49;101667.19;5105596;28;20040;-76
2022/03/01 07:32:42;;;;;;;23.33;12.45;;;;;;;0.04;76.79;101667.22;5105885;28;20052;-76
2022/03/01 07:35:10;;;;;;;25.40;12.60;;;;;;;0.13;75.48;101672.69;5102519;28;20039;-75
2022/03/01 07:37:38;;;;;;;24.02;12.48;;;;;;;0.07;75.62;101673.50;5105007;28;20048;-77
2022/03/01 07:40:08;;;;;;;23.50;11.63;;;;;;;0.19;75.69;101669.25;5106567;28;20040;-77
2022/03/01 07:42:35;;;;;;;23.05;12.27;;;;;;;0.31;75.42;101677.38;5105358;28;20054;-76
2022/03/01 07:45:03;;;;;;;23.88;11.70;;;;;;;0.47;75.15;101667.88;5104544;28;20051;-81
2022/03/01 07:47:31;;;;;;;22.92;11.55;;;;;;;0.54;74.89;101669.75;5102514;28;20481;-80
2022/03/01 07:50:00;;;;;;;22.40;11.63;;;;;;;0.60;74.95;101660.06;5106537;28;20040;-81
2022/03/01 07:52:27;;;;;;;22.88;11.30;;;;;;;0.67;74.49;101667.28;5103928;28;20378;-81
2022/03/01 07:54:55;;;;;;;27.08;11.90;;;;;;;0.64;73.96;101661.94;5105411;28;20051;-82
2022/03/01 07:57:23;;;;;;;20.98;10.43;;;;;;;0.74;74.20;101676.22;5106866;28;20040;-81
2022/03/01 07:59:50;;;;;;;25.45;11.60;;;;;;;0.84;73.80;101668.41;5102106;28;20401;-82
2022/03/01 08:02:18;;;;;;;21.88;11.30;;;;;;;0.93;74.09;101664.06;5104941;28;20035;-83
2022/03/01 08:04:45;;;;;;;26.02;11.05;;;;;;;0.99;73.67;101657.06;5106191;28;20047;-81
2022/03/01 08:07:14;;;;;;;22.20;11.15;;;;;;;0.99;73.41;101656.16;5104564;28;20074;-76
2022/03/01 08:09:42;;;;;;;25.83;10.80;;;;;;;1.09;73.68;101649.19;5105172;28;20043;-80
2022/03/01 08:12:11;;;;;;;20.08;10.05;;;;;;;1.25;72.93;101652.91;5102356;28;20048;-80
2022/03/01 08:14:38;;;;;;;23.80;11.38;;;;;;;1.38;71.60;101649.50;5087446;28;20377;-82
2022/03/01 08:17:06;;;;;;;25.98;11.65;;;;;;;1.48;72.18;101650.50;5106882;28;20032;-81
2022/03/01 08:19:33;;;;;;;21.73;10.43;;;;;;;1.59;72.33;101640.81;5105528;28;20051;-76
2022/03/01 08:22:02;;;;;;;22.88;10.98;;;;;;;1.65;71.60;101639.13;5104864;28;20046;-79
2022/03/01 08:24:32;;;;;;;21.95;10.63;;;;;;;1.72;70.75;101644.50;5101514;28;20043;-78
2022/03/01 08:26:59;;;;;;;22.30;10.88;;;;;;;1.91;70.01;101638.44;5105062;28;20449;-80
2022/03/01 08:29:28;;;;;;;19.55;9.52;;;;;;;1.99;70.14;101642.06;5107391;28;20050;-81
2022/03/01 08:31:56;;;;;;;19.40;9.13;;;;;;;2.02;68.87;101637.66;5103687;28;20050;-76
2022/03/01 08:34:23;;;;;;;20.63;9.50;;;;;;;1.93;69.21;101637.59;5106448;28;20042;-78
2022/03/01 08:36:51;;;;;;;19.80;9.45;;;;;;;2.07;69.39;101634.13;5101685;28;20047;-80
2022/03/01 08:39:18;;;;;;;21.73;9.75;;;;;;;2.20;69.68;101635.13;5104940;28;20061;-79
2022/03/01 08:41:50;;;;;;;19.38;9.98;;;;;;;2.48;68.59;101637.97;5103564;28;20039;-80
2022/03/01 08:44:17;;;;;;;17.52;9.00;;;;;;;2.37;68.46;101625.44;5105217;28;20043;-78
2022/03/01 08:46:45;;;;;;;20.10;8.80;;;;;;;2.71;66.51;101625.63;5106123;28;20051;-79
2022/03/01 08:49:12;;;;;;;22.88;9.07;;;;;;;2.69;66.42;101623.84;5105283;28;20050;-79
2022/03/01 08:51:40;;;;;;;20.10;9.38;;;;;;;2.72;65.68;101614.06;5102181;28;20393;-78
2022/03/01 08:54:08;;;;;;;18.20;8.10;;;;;;;2.70;64.58;101604.28;5103758;28;20092;-78
2022/03/01 08:56:35;;;;;;;20.13;8.90;;;;;;;2.79;65.91;101609.66;5100559;28;20509;-77
2022/03/01 08:59:05;;;;;;;22.25;8.75;;;;;;;2.80;66.13;101608.78;5097099;28;20405;-80
2022/03/01 09:01:33;;;;;;;20.58;9.50;;;;;;;2.78;65.65;101602.53;5100350;28;20536;-79
2022/03/01 09:04:00;;;;;;;19.10;9.90;;;;;;;2.87;65.91;101604.34;5105513;28;20496;-75
2022/03/01 09:06:28;;;;;;;21.92;10.35;;;;;;;2.89;65.42;101602.59;5105909;28;20040;-80
2022/03/01 09:08:56;;;;;;;19.38;8.70;;;;;;;3.01;65.33;101599.03;5096989;28;20050;-78
2022/03/01 09:11:23;;;;;;;17.42;8.07;;;;;;;3.13;64.53;101598.19;5102575;28;20115;-76
2022/03/01 09:13:51;;;;;;;21.00;8.82;;;;;;;3.38;64.12;101604.47;5105655;28;20044;-79
2022/03/01 09:16:20;;;;;;;16.65;7.88;;;;;;;3.48;64.03;101608.97;5098857;28;20044;-79
2022/03/01 09:18:47;;;;;;;19.15;8.82;;;;;;;3.41;64.08;101599.13;5096593;28;20044;-76
2022/03/01 09:21:15;;;;;;;17.60;8.32;;;;;;;3.29;63.27;101601.78;5102120;28;20042;-79
2022/03/01 09:23:43;;;;;;;17.75;9.20;;;;;;;3.59;62.40;101594.72;5099744;28;20109;-80
2022/03/01 09:26:11;;;;;;;17.73;8.38;;;;;;;3.51;63.45;101597.38;5095419;28;20057;-75
2022/03/01 09:28:39;;;;;;;19.83;8.00;;;;;;;3.61;62.92;101592.94;5096146;28;20121;-79
2022/03/01 09:31:07;;;;;;;17.15;7.45;;;;;;;3.84;63.31;101598.28;5103261;28;20048;-79
2022/03/01 09:33:42;;;;;;;18.40;8.48;;;;;;;3.89;62.39;101592.94;5103818;28;20444;-76
2022/03/01 09:36:10;;;;;;;21.02;7.82;;;;;;;3.87;61.76;101592.00;5096875;28;20048;-77
2022/03/01 09:38:38;;;;;;;21.42;7.60;;;;;;;3.88;61.70;101593.84;5098302;28;20047;-76
2022/03/01 09:41:06;;;;;;;16.42;7.72;;;;;;;3.96;60.05;101591.13;5093689;28;20047;-75
2022/03/01 09:43:36;;;;;;;14.63;6.97;;;;;;;3.98;58.74;101598.28;5094089;28;20051;-79
2022/03/01 09:46:04;;;;;;;17.33;7.68;;;;;;;4.23;57.92;101594.66;5096020;28;20505;-76
2022/03/01 09:48:31;;;;;;;16.20;7.00;;;;;;;4.26;57.40;101597.34;5093421;28;20050;-80
2022/03/01 09:51:01;;;;;;;19.17;7.85;;;;;;;4.34;57.15;101588.41;5093579;28;20044;-76
2022/03/01 09:53:29;;;;;;;18.25;9.00;;;;;;;4.42;56.74;101574.09;5088343;28;20413;-81
2022/03/01 09:55:59;;;;;;;15.50;7.10;;;;;;;4.33;57.83;101572.34;5093370;28;20062;-76
2022/03/01 09:58:28;;;;;;;18.15;7.50;;;;;;;4.19;57.01;101569.69;5093437;28;20044;-77
2022/03/01 10:00:55;;;;;;;16.55;7.30;;;;;;;4.28;57.87;101563.44;5096673;28;20039;-80
2022/03/01 10:03:22;;;;;;;17.38;6.93;;;;;;;4.31;57.08;101560.75;5098955;28;20047;-77
2022/03/01 10:05:51;;;;;;;16.15;7.47;;;;;;;4.56;55.97;101549.97;5097839;28;20047;-76
2022/03/01 10:08:22;;;;;;;15.80;6.57;;;;;;;4.68;55.76;101551.69;5074816;28;20397;-79
2022/03/01 10:10:51;;;;;;;13.90;6.60;;;;;;;4.58;54.58;101542.84;5090901;28;20044;-76
2022/03/01 10:13:24;;;;;;;14.48;6.53;;;;;;;4.63;56.28;101539.22;5092890;28;20040;-76
2022/03/01 10:15:52;;;;;;;16.80;7.15;;;;;;;4.78;54.85;101530.22;5093127;28;20051;-82
2022/03/01 10:18:21;;;;;;;14.30;6.53;;;;;;;4.85;55.77;101523.06;5101806;28;20043;-76
2022/03/01 10:20:49;;;;;;;20.67;9.15;;;;;;;4.77;54.43;101517.75;5102908;28;20051;-77
2022/03/01 10:23:24;;;;;;;15.93;6.40;;;;;;;4.65;53.65;101515.13;5099051;28;20052;-83
2022/03/01 10:25:52;;;;;;;17.55;6.00;;;;;;;4.73;53.08;101513.31;5091032;28;20044;-75
2022/03/01 10:28:33;;;;;;;13.73;5.90;;;;;;;4.67;52.11;101515.09;5088513;28;20047;-81
2022/03/01 10:31:11;;;;;;;14.57;6.43;;;;;;;4.69;54.91;101510.63;5089050;28;20052;-80
2022/03/01 10:33:40;;;;;;;15.70;6.80;;;;;;;4.83;56.08;101506.13;5089792;28;20036;-77
2022/03/01 10:36:08;;;;;;;19.13;7.03;;;;;;;5.14;54.96;101510.38;5088885;28;20085;-81
2022/03/01 10:38:39;;;;;;;12.50;5.70;;;;;;;4.93;52.95;101497.13;5089244;28;20074;-76
2022/03/01 10:41:07;;;;;;;14.98;6.78;;;;;;;4.94;53.19;101503.38;5090908;28;20055;-77
2022/03/01 10:43:34;;;;;;;14.43;6.53;;;;;;;4.82;54.37;101495.41;5089289;28;20048;-78
2022/03/01 10:46:08;;;;;;;17.13;6.35;;;;;;;4.81;55.77;101496.28;5089050;28;20050;-77
2022/03/01 10:48:35;;;;;;;13.95;6.05;;;;;;;4.83;55.03;101490.03;5090193;28;20052;-76
2022/03/01 10:51:05;;;;;;;12.65;5.82;;;;;;;4.98;54.77;101485.47;5102398;28;20040;-76
2022/03/01 10:53:33;;;;;;;13.25;5.78;;;;;;;4.99;55.19;101471.19;5109297;28;20050;-77
2022/03/01 10:56:04;;;;;;;12.98;5.80;;;;;;;4.91;54.61;101464.09;5109468;28;20523;-78
2022/03/01 10:58:35;;;;;;;13.55;5.97;;;;;;;5.00;54.05;101452.44;5099134;28;20477;-76
2022/03/01 11:01:03;;;;;;;13.13;5.90;;;;;;;4.92;54.11;101448.94;5088901;28;20047;-76
2022/03/01 11:03:31;;;;;;;13.75;6.40;;;;;;;5.15;54.58;101453.22;5088678;28;20040;-76
2022/03/01 11:05:59;;;;;;;12.60;5.13;;;;;;;5.22;53.75;101442.44;5089106;28;20113;-75
2022/03/01 11:08:33;;;;;;;12.75;6.15;;;;;;;5.30;53.87;101439.72;5096403;28;20036;-79
2022/03/01 11:11:02;;;;;;;12.07;5.55;;;;;;;5.21;53.44;101443.34;5103876;28;20050;-79
2022/03/01 11:13:32;;;;;;;11.55;4.45;;;;;;;5.10;51.38;101437.19;5109644;28;20051;-79
2022/03/01 11:16:33;;;;;;;11.07;4.65;;;;;;;5.33;51.40;101425.38;5108522;28;20048;-77
2022/03/01 11:19:09;;;;;;;11.38;4.85;;;;;;;5.13;49.72;101428.22;5109644;28;20097;-79
2022/03/01 11:21:37;;;;;;;12.93;5.20;;;;;;;5.27;51.71;101430.78;5109543;28;20051;-76